Time;durP1;ratioP1;P1;durP2;ratioP2;P2;SDS_P1;SDS_P2;PMS_P1;PMS_P2;Temp;Humidity;BMP_temperature;BMP_pressure;BME280_temperature;BME280_humidity;BME280_pressure;Samples;Min_cycle;Max_cycle;Signal;HPM_P1;HPM_P2
2022/07/29 07:33:16;;;;;;;9.48;2.65;;;;;;;20.46;57.74;101399.06;5111970;28;20266;-75
2022/07/29 07:35:49;;;;;;;10.70;2.17;;;;;;;20.47;57.72;101382.63;5113755;28;20128;-75
2022/07/29 07:38:15;;;;;;;10.05;1.42;;;;;;;20.53;57.53;101384.50;5098644;28;20088;-74
2022/07/29 07:40:41;;;;;;;5.93;1.20;;;;;;;20.51;55.86;101375.72;5097868;28;20039;-74
2022/07/29 07:43:19;;;;;;;4.55;1.05;;;;;;;20.50;55.73;101368.66;5114875;28;20042;-77
2022/07/29 07:46:14;;;;;;;5.50;0.98;;;;;;;20.73;55.23;101401.47;5113405;28;20050;-77
2022/07/29 07:48:49;;;;;;;4.10;1.20;;;;;;;20.32;52.40;101380.13;5105901;28;20047;-75
2022/07/29 07:51:14;;;;;;;5.35;1.10;;;;;;;20.43;53.07;101394.91;5127231;28;20031;-75
2022/07/29 07:53:44;;;;;;;15.02;2.17;;;;;;;20.47;53.30;101398.84;5127403;28;20064;-74
2022/07/29 07:56:32;;;;;;;7.90;1.13;;;;;;;20.53;53.91;101392.59;5111112;28;20102;-78
2022/07/29 07:59:45;;;;;;;6.07;1.53;;;;;;;20.86;52.41;101406.03;5130716;27;20035;-83
2022/07/29 08:02:10;;;;;;;6.57;1.80;;;;;;;20.91;50.25;101379.13;5120872;28;20042;-76
2022/07/29 08:04:38;;;;;;;2.85;0.85;;;;;;;20.97;50.13;101399.91;5100205;28;20126;-74
2022/07/29 08:07:41;;;;;;;3.15;1.30;;;;;;;20.84;51.47;101397.28;5102183;28;20074;-75
2022/07/29 08:10:07;;;;;;;2.95;0.90;;;;;;;20.51;51.90;101389.25;5120519;28;20039;-74
2022/07/29 08:12:34;;;;;;;1.50;0.93;;;;;;;20.45;52.71;101403.63;5118671;28;20027;-74
2022/07/29 08:14:59;;;;;;;7.25;0.90;;;;;;;20.27;54.35;101408.88;5121149;28;20042;-77
2022/07/29 08:17:26;;;;;;;9.55;1.20;;;;;;;20.15;54.56;101407.81;5118692;28;20020;-74
2022/07/29 08:20:52;;;;;;;27.23;4.10;;;;;;;20.06;55.09;101381.00;5096858;28;20038;-76
2022/07/29 08:23:18;;;;;;;3.63;1.20;;;;;;;20.20;54.17;101372.88;5032694;28;20117;-73
2022/07/29 08:25:44;;;;;;;6.65;1.48;;;;;;;20.43;52.68;101397.63;5032358;28;20041;-75
2022/07/29 08:28:10;;;;;;;4.85;1.50;;;;;;;20.42;51.95;101388.66;5032390;28;20096;-72
2022/07/29 08:30:56;;;;;;;12.20;1.45;;;;;;;20.66;52.00;101408.78;5032497;28;20118;-74
2022/07/29 08:38:27;;;;;;;8.43;1.38;;;;;;;21.52;51.28;101407.56;5114711;28;20077;-76
2022/07/29 08:41:19;;;;;;;2.38;0.80;;;;;;;21.46;51.76;101419.28;5116655;28;20048;-77
2022/07/29 08:43:45;;;;;;;7.57;1.45;;;;;;;21.48;51.47;101409.03;5095989;28;20070;-75
2022/07/29 08:46:58;;;;;;;2.15;0.93;;;;;;;21.48;51.57;101390.06;5113886;28;20084;-76
2022/07/29 08:49:34;;;;;;;4.70;1.08;;;;;;;21.48;52.96;101417.19;5078562;28;20035;-76
2022/07/29 08:52:56;;;;;;;1.63;0.73;;;;;;;21.69;53.99;101413.28;5095731;28;20059;-75
2022/07/29 08:55:27;;;;;;;7.70;1.75;;;;;;;21.82;53.14;101418.59;5013051;28;20520;-75
2022/07/29 08:57:55;;;;;;;5.75;1.20;;;;;;;21.85;53.05;101405.41;5015790;28;20034;-74
2022/07/29 09:00:22;;;;;;;6.80;1.75;;;;;;;21.85;53.14;101413.56;5072459;28;20040;-75
2022/07/29 09:02:55;;;;;;;3.58;1.17;;;;;;;21.96;53.00;101420.97;5095919;28;20051;-74
2022/07/29 09:05:20;;;;;;;6.78;1.27;;;;;;;21.95;52.14;101422.00;5114946;28;20031;-75
2022/07/29 09:11:15;;;;;;;4.18;1.40;;;;;;;21.62;52.58;101411.44;5099481;28;20055;-79
2022/07/29 09:13:44;;;;;;;2.58;1.10;;;;;;;21.59;52.17;101430.00;5080693;28;20031;-81
2022/07/29 09:16:09;;;;;;;12.32;2.65;;;;;;;21.72;52.04;101427.22;5096443;28;20043;-76
2022/07/29 09:18:45;;;;;;;5.07;1.63;;;;;;;21.80;50.42;101435.09;5115072;28;20118;-74
2022/07/29 09:24:03;;;;;;;6.47;2.17;;;;;;;21.35;51.84;101412.66;5095890;28;20332;-76
2022/07/29 09:26:37;;;;;;;4.55;1.92;;;;;;;21.29;51.53;101411.66;5095228;28;20040;-74
2022/07/29 09:36:40;;;;;;;9.85;1.75;;;;;;;21.46;52.07;101422.00;5089676;28;20050;-76
2022/07/29 09:39:09;;;;;;;4.22;1.52;;;;;;;21.38;51.24;101403.25;5113364;28;20077;-77
2022/07/29 09:42:02;;;;;;;2.72;0.98;;;;;;;21.65;52.88;101423.72;5115954;28;20047;-78
2022/07/29 09:44:48;;;;;;;5.60;1.50;;;;;;;21.75;53.06;101413.22;5097530;28;20494;-74
2022/07/29 09:47:26;;;;;;;2.95;2.05;;;;;;;21.64;53.39;101411.22;5107025;28;20043;-75
2022/07/29 09:54:03;;;;;;;5.45;1.75;;;;;;;21.23;54.95;101377.31;5112229;28;20089;-76
2022/07/29 10:00:06;;;;;;;3.42;0.82;;;;;;;21.53;53.71;101409.22;5113267;28;20044;-74
2022/07/29 10:03:13;;;;;;;3.92;0.90;;;;;;;21.63;53.10;101398.72;5110519;28;20043;-76
2022/07/29 10:06:41;;;;;;;6.75;2.33;;;;;;;21.80;53.42;101409.84;5095273;28;20032;-76
2022/07/29 10:09:09;;;;;;;5.50;1.05;;;;;;;21.78;54.47;101429.06;5112850;28;20095;-74
2022/07/29 10:11:37;;;;;;;67.07;5.40;;;;;;;21.67;54.13;101432.44;5112235;28;20478;-76
2022/07/29 10:14:21;;;;;;;23.42;2.67;;;;;;;21.47;54.80;101415.53;5112902;28;20074;-82
2022/07/29 10:16:55;;;;;;;2.47;0.90;;;;;;;21.18;53.97;101392.53;5093793;28;20044;-76
2022/07/29 10:19:20;;;;;;;8.02;1.00;;;;;;;21.15;53.71;101411.94;5093782;28;20035;-76
2022/07/29 10:21:46;;;;;;;13.13;1.00;;;;;;;20.92;53.54;101369.97;5092599;28;20042;-75
2022/07/29 10:27:27;;;;;;;6.32;0.70;;;;;;;21.20;52.91;101393.16;5113114;28;20055;-73
2022/07/29 10:29:53;;;;;;;3.28;0.90;;;;;;;21.54;53.15;101432.56;5112535;28;20534;-73
2022/07/29 10:32:56;;;;;;;9.77;1.20;;;;;;;21.67;52.70;101427.03;5112993;28;20031;-73
2022/07/29 10:35:45;;;;;;;3.08;0.77;;;;;;;21.72;50.53;101423.69;5114286;28;20059;-74
2022/07/29 10:38:31;;;;;;;32.25;1.77;;;;;;;21.53;50.84;101430.91;5114001;28;20051;-78
2022/07/29 10:41:27;;;;;;;3.35;0.88;;;;;;;21.48;50.80;101434.28;5111616;28;20071;-75
2022/07/29 10:43:56;;;;;;;3.80;0.93;;;;;;;21.57;50.81;101432.13;5114021;28;20208;-75
2022/07/29 10:46:22;;;;;;;4.80;0.80;;;;;;;21.48;51.28;101428.03;5114375;28;20070;-74
2022/07/29 10:49:06;;;;;;;14.43;1.50;;;;;;;21.56;50.57;101427.75;5111362;28;20122;-77
2022/07/29 10:52:13;;;;;;;2.65;1.08;;;;;;;21.84;50.63;101428.16;5111880;28;20027;-76
2022/07/29 10:54:53;;;;;;;8.40;0.70;;;;;;;21.89;49.94;101431.03;5101300;28;20058;-74
2022/07/29 10:57:29;;;;;;;10.77;1.35;;;;;;;21.78;50.10;101431.75;5133584;28;20039;-73
2022/07/29 11:00:10;;;;;;;6.70;1.00;;;;;;;21.78;50.36;101428.22;5130240;28;20024;-72
2022/07/29 11:02:35;;;;;;;5.57;0.80;;;;;;;21.76;49.32;101435.75;5134980;28;20055;-72
2022/07/29 11:05:10;;;;;;;6.47;1.10;;;;;;;21.82;49.41;101435.69;5111496;28;20100;-78
2022/07/29 11:07:38;;;;;;;6.20;0.55;;;;;;;21.89;49.77;101430.22;5112552;28;20028;-75
2022/07/29 11:10:13;;;;;;;6.05;0.85;;;;;;;21.92;50.28;101424.34;5113386;28;20176;-74
2022/07/29 11:12:38;;;;;;;4.95;1.00;;;;;;;22.00;50.80;101429.50;5113745;28;20035;-74
2022/07/29 11:15:06;;;;;;;7.03;1.67;;;;;;;21.89;51.73;101398.50;5113620;28;20032;-76
2022/07/29 11:18:08;;;;;;;7.15;1.27;;;;;;;22.02;51.36;101432.81;5113033;28;20028;-72
2022/07/29 11:20:39;;;;;;;2.95;0.98;;;;;;;21.86;51.45;101434.19;5030923;28;20045;-71
2022/07/29 11:23:28;;;;;;;4.85;0.80;;;;;;;21.80;50.29;101382.75;5098634;28;20051;-75
2022/07/29 11:26:09;;;;;;;1.88;0.80;;;;;;;22.02;50.89;101430.13;5116450;28;20035;-74
2022/07/29 11:28:57;;;;;;;6.45;1.48;;;;;;;21.92;51.22;101427.88;5119484;28;20059;-73
2022/07/29 11:31:34;;;;;;;12.18;1.35;;;;;;;21.88;50.30;101429.38;5121649;28;20036;-73
2022/07/29 11:34:23;;;;;;;20.45;1.95;;;;;;;21.84;49.75;101436.31;5121829;28;20040;-73
2022/07/29 11:37:09;;;;;;;4.10;1.27;;;;;;;21.66;51.13;101441.63;5121326;28;20044;-76
2022/07/29 11:39:36;;;;;;;2.22;0.98;;;;;;;21.48;52.84;101447.81;5112392;28;20047;-76
2022/07/29 11:42:20;;;;;;;7.88;1.23;;;;;;;21.39;53.70;101440.16;5112726;28;20092;-75
2022/07/29 11:44:57;;;;;;;11.38;1.33;;;;;;;21.28;53.78;101441.66;5112634;28;20039;-75
2022/07/29 11:47:25;;;;;;;10.32;2.00;;;;;;;21.32;52.41;101446.44;5110891;28;20055;-75
2022/07/29 11:49:51;;;;;;;2.88;1.08;;;;;;;21.42;52.56;101437.03;5112274;28;20058;-74
2022/07/29 11:52:18;;;;;;;5.95;0.90;;;;;;;21.31;53.04;101439.34;5113693;28;20031;-74
2022/07/29 11:54:43;;;;;;;1.35;0.60;;;;;;;21.19;52.75;101440.25;5115892;28;20381;-76
2022/07/29 11:57:09;;;;;;;16.35;1.58;;;;;;;20.65;53.64;101404.41;5116602;28;20036;-74
2022/07/29 11:59:43;;;;;;;11.75;1.02;;;;;;;20.62;55.39;101441.91;5115895;28;20538;-75
2022/07/29 12:02:10;;;;;;;9.45;0.98;;;;;;;20.58;54.80;101433.38;5129209;28;20028;-72
2022/07/29 12:04:56;;;;;;;9.68;1.92;;;;;;;20.55;54.64;101441.09;5136862;28;20019;-73
2022/07/29 12:07:32;;;;;;;16.38;1.25;;;;;;;20.56;54.28;101451.72;5137227;28;20032;-74
2022/07/29 12:09:58;;;;;;;12.02;1.23;;;;;;;20.48;55.42;101438.38;5139076;28;20032;-76
2022/07/29 12:12:24;;;;;;;10.38;1.40;;;;;;;20.40;55.51;101446.75;5139067;28;20038;-73
2022/07/29 12:14:50;;;;;;;4.95;1.17;;;;;;;20.27;55.86;101441.31;5133889;28;20035;-72
2022/07/29 12:17:25;;;;;;;8.80;0.88;;;;;;;20.34;55.49;101458.38;5113605;28;20103;-76
2022/07/29 12:19:51;;;;;;;2.38;0.70;;;;;;;20.23;55.37;101440.06;5114697;28;20062;-73
2022/07/29 12:22:26;;;;;;;3.92;1.15;;;;;;;19.97;53.57;101416.59;5114770;28;20483;-76
2022/07/29 12:25:00;;;;;;;2.80;0.90;;;;;;;19.97;54.71;101444.47;5095732;28;20047;-77
2022/07/29 12:27:26;;;;;;;7.00;1.40;;;;;;;19.74;57.52;101408.88;5114863;28;20084;-75
2022/07/29 12:30:05;;;;;;;13.57;1.40;;;;;;;19.97;58.41;101440.94;5113736;28;20440;-76
2022/07/29 12:33:19;;;;;;;5.90;1.05;;;;;;;19.96;58.14;101426.56;5114394;28;20110;-76
2022/07/29 12:35:51;;;;;;;8.00;1.27;;;;;;;20.00;58.10;101444.03;5095529;28;20055;-73
2022/07/29 12:38:17;;;;;;;5.93;2.03;;;;;;;19.94;57.78;101461.06;5114710;28;20039;-73
2022/07/29 12:40:44;;;;;;;11.88;2.05;;;;;;;19.74;56.84;101458.38;5114252;28;20047;-72
2022/07/29 12:43:29;;;;;;;33.55;4.30;;;;;;;19.68;56.31;101447.56;5114683;28;20044;-77
2022/07/29 12:46:20;;;;;;;4.95;1.17;;;;;;;19.67;58.71;101424.28;5113030;28;20429;-75
2022/07/29 12:48:57;;;;;;;5.57;1.58;;;;;;;19.96;59.17;101440.09;5114340;28;20043;-78
2022/07/29 12:51:34;;;;;;;9.40;1.23;;;;;;;20.16;56.97;101455.47;5114362;28;20032;-70
2022/07/29 12:54:10;;;;;;;17.48;2.20;;;;;;;20.24;55.98;101457.94;5114198;28;20039;-70
2022/07/29 12:56:37;;;;;;;28.55;2.40;;;;;;;20.25;54.26;101454.22;5114288;28;20044;-70
2022/07/29 12:59:15;;;;;;;8.63;1.40;;;;;;;20.25;52.92;101465.88;5113992;28;20347;-71
2022/07/29 13:01:41;;;;;;;10.90;2.13;;;;;;;20.18;50.79;101448.81;5116836;28;20126;-69
2022/07/29 13:04:06;;;;;;;7.18;1.30;;;;;;;20.20;53.08;101440.47;5128339;28;20043;-69
2022/07/29 13:06:44;;;;;;;9.57;1.95;;;;;;;20.38;55.05;101444.22;5125782;28;20035;-69
2022/07/29 13:09:15;;;;;;;11.73;1.80;;;;;;;20.62;55.43;101440.03;5126087;28;20031;-70
2022/07/29 13:11:49;;;;;;;4.82;1.00;;;;;;;20.78;54.93;101454.13;5127537;28;20490;-72
2022/07/29 13:14:33;;;;;;;21.70;2.33;;;;;;;20.80;55.67;101433.91;5114662;27;20490;-70
2022/07/29 13:17:17;;;;;;;4.72;0.98;;;;;;;20.71;56.40;101443.34;5114028;28;20034;-70
2022/07/29 13:19:48;;;;;;;10.43;1.75;;;;;;;20.40;57.15;101419.69;5114112;28;20688;-70
2022/07/29 13:22:17;;;;;;;5.38;1.08;;;;;;;20.40;57.69;101423.22;5114285;28;20040;-70
2022/07/29 13:24:52;;;;;;;7.85;1.30;;;;;;;20.49;57.31;101423.81;5113727;28;20040;-69
2022/07/29 13:27:23;;;;;;;9.02;1.38;;;;;;;20.63;55.04;101436.28;5112662;28;20042;-70
2022/07/29 13:29:51;;;;;;;7.80;1.00;;;;;;;20.53;60.30;101441.31;5114692;28;20110;-72
2022/07/29 13:32:16;;;;;;;10.25;1.50;;;;;;;20.53;61.38;101441.31;5114853;28;20035;-71
2022/07/29 13:34:43;;;;;;;10.93;2.20;;;;;;;20.24;61.67;101430.91;5116927;28;20112;-70
2022/07/29 13:37:09;;;;;;;3.88;0.88;;;;;;;20.26;61.76;101442.38;5116629;28;20160;-70
2022/07/29 13:39:35;;;;;;;2.78;1.42;;;;;;;20.23;61.52;101431.94;5123710;28;20099;-69
2022/07/29 13:42:00;;;;;;;12.25;1.70;;;;;;;20.13;61.68;101440.50;5127232;28;20077;-70
2022/07/29 13:44:26;;;;;;;3.70;1.20;;;;;;;20.08;62.24;101429.47;5128288;28;20035;-70
2022/07/29 13:46:52;;;;;;;4.07;0.90;;;;;;;20.04;62.90;101436.34;5129494;28;20561;-70
2022/07/29 13:49:18;;;;;;;6.20;1.38;;;;;;;19.94;63.65;101447.56;5130047;28;20031;-69
2022/07/29 13:51:43;;;;;;;6.38;1.15;;;;;;;19.93;63.82;101435.06;5126761;28;20096;-66
2022/07/29 13:54:09;;;;;;;8.25;1.67;;;;;;;20.26;63.31;101429.69;5116984;28;20035;-69
2022/07/29 13:56:34;;;;;;;4.40;0.98;;;;;;;20.68;60.18;101428.34;5114745;28;20031;-68
2022/07/29 13:58:59;;;;;;;7.00;1.48;;;;;;;20.95;58.12;101439.91;5122745;28;20126;-68
2022/07/29 14:01:27;;;;;;;6.50;1.08;;;;;;;21.03;58.10;101415.28;5123924;28;20035;-68
2022/07/29 14:03:53;;;;;;;5.17;1.23;;;;;;;21.04;57.82;101419.66;5123458;28;20038;-71
2022/07/29 14:06:18;;;;;;;7.60;1.02;;;;;;;21.18;58.18;101425.88;5115341;28;20131;-69
2022/07/29 14:08:44;;;;;;;12.75;2.80;;;;;;;21.28;57.64;101437.09;5113226;28;20039;-70
2022/07/29 14:11:10;;;;;;;3.45;1.15;;;;;;;21.32;57.71;101422.06;5113771;28;20134;-69
2022/07/29 14:13:36;;;;;;;7.72;2.70;;;;;;;21.34;58.32;101422.66;5113183;28;20390;-71
2022/07/29 14:16:02;;;;;;;1.55;1.13;;;;;;;21.14;59.06;101424.63;5093756;28;20035;-72
2022/07/29 14:18:28;;;;;;;7.28;1.55;;;;;;;21.03;60.15;101406.34;5112046;28;20024;-71
2022/07/29 14:20:53;;;;;;;4.25;1.77;;;;;;;21.17;60.79;101432.31;5111057;28;20126;-70
2022/07/29 14:23:19;;;;;;;5.22;0.85;;;;;;;21.04;60.83;101418.84;5112751;28;20027;-70
2022/07/29 14:25:44;;;;;;;5.57;1.10;;;;;;;21.00;60.31;101431.16;5112551;28;20077;-71
2022/07/29 14:28:10;;;;;;;15.07;1.40;;;;;;;20.73;59.70;101425.84;5112711;28;20482;-69
2022/07/29 14:30:35;;;;;;;11.68;1.55;;;;;;;20.53;60.65;101424.22;5112421;28;20042;-71
2022/07/29 14:33:01;;;;;;;6.43;1.48;;;;;;;20.08;61.01;101427.59;5112316;28;20038;-69
2022/07/29 14:35:29;;;;;;;4.07;1.25;;;;;;;19.61;61.60;101381.84;5112350;28;20101;-69
2022/07/29 14:37:54;;;;;;;7.03;1.73;;;;;;;19.75;62.43;101432.19;5112408;28;20051;-70
2022/07/29 14:40:20;;;;;;;8.38;0.77;;;;;;;19.64;63.14;101424.66;5112589;28;20035;-70
2022/07/29 14:42:45;;;;;;;8.07;1.90;;;;;;;19.70;63.55;101424.69;5112597;28;20047;-70
2022/07/29 14:45:11;;;;;;;5.03;1.48;;;;;;;19.80;63.23;101418.88;5112439;28;20114;-70
2022/07/29 14:47:38;;;;;;;4.82;1.40;;;;;;;19.83;63.29;101418.44;5112407;28;20039;-70
2022/07/29 14:50:05;;;;;;;5.72;1.23;;;;;;;19.88;63.42;101420.53;5112467;28;20059;-70
2022/07/29 14:52:30;;;;;;;6.07;1.88;;;;;;;19.93;63.28;101428.84;5112835;28;20038;-69
2022/07/29 14:54:56;;;;;;;1.77;1.10;;;;;;;19.72;62.00;101438.00;5112013;28;20118;-70
2022/07/29 14:57:21;;;;;;;9.73;3.53;;;;;;;19.62;62.93;101438.38;5112113;28;20387;-70
2022/07/29 14:59:47;;;;;;;3.28;1.08;;;;;;;19.54;64.60;101429.66;5112387;28;20032;-74
2022/07/29 15:02:12;;;;;;;5.25;1.10;;;;;;;19.38;64.91;101417.34;5094122;28;20035;-73
2022/07/29 15:04:38;;;;;;;2.00;1.10;;;;;;;19.28;65.84;101420.41;5111991;28;20032;-71
2022/07/29 15:07:03;;;;;;;3.10;1.50;;;;;;;19.35;66.26;101442.84;5112162;28;20042;-70
2022/07/29 15:09:29;;;;;;;5.55;1.85;;;;;;;19.21;66.73;101435.78;5111991;28;20043;-68
2022/07/29 15:11:54;;;;;;;7.18;2.22;;;;;;;19.21;67.11;101440.34;5112547;28;20028;-70
2022/07/29 15:14:29;;;;;;;9.98;1.52;;;;;;;19.36;66.90;101425.63;5112467;28;20046;-72
2022/07/29 15:16:54;;;;;;;4.00;1.60;;;;;;;19.41;66.42;101436.66;5112731;28;20069;-71
2022/07/29 15:19:20;;;;;;;2.90;1.63;;;;;;;19.32;66.05;101420.84;5094193;28;20090;-70
2022/07/29 15:21:46;;;;;;;3.33;1.15;;;;;;;19.46;65.83;101422.53;5112157;28;20039;-70
2022/07/29 15:24:11;;;;;;;4.03;2.10;;;;;;;19.64;65.77;101422.78;5111841;28;20039;-70
2022/07/29 15:26:37;;;;;;;5.05;1.98;;;;;;;19.88;65.04;101410.53;5112494;28;20463;-70
2022/07/29 15:29:02;;;;;;;3.53;2.13;;;;;;;19.90;64.88;101411.16;5115987;28;20076;-71
2022/07/29 15:31:28;;;;;;;1.58;1.48;;;;;;;19.68;64.76;101434.88;5115668;28;20514;-69
2022/07/29 15:33:55;;;;;;;3.50;1.60;;;;;;;19.53;65.66;101423.41;5115535;28;20042;-71
2022/07/29 15:36:21;;;;;;;5.97;2.10;;;;;;;19.52;65.80;101424.41;5115548;28;20040;-69
2022/07/29 15:38:47;;;;;;;3.70;1.80;;;;;;;19.62;66.13;101424.03;5115443;28;20502;-71
2022/07/29 15:41:15;;;;;;;6.00;1.63;;;;;;;19.57;66.87;101423.81;5097415;28;20108;-70
2022/07/29 15:43:47;;;;;;;3.63;1.90;;;;;;;19.52;67.18;101434.38;5115497;28;20062;-69
2022/07/29 15:49:05;;;;;;;6.90;1.85;;;;;;;19.22;67.81;101426.63;5115043;28;20047;-71
2022/07/29 15:51:31;;;;;;;5.85;2.10;;;;;;;19.08;68.44;101419.50;5115507;28;20039;-71
2022/07/29 15:53:56;;;;;;;2.60;1.83;;;;;;;19.06;69.06;101422.41;5115796;28;20133;-71
2022/07/29 15:56:23;;;;;;;5.30;2.08;;;;;;;18.96;69.90;101430.06;5115683;28;20052;-69
2022/07/29 15:58:48;;;;;;;6.40;2.35;;;;;;;18.99;70.33;101432.34;5115496;28;20036;-70
2022/07/29 16:01:14;;;;;;;2.70;1.92;;;;;;;18.96;70.77;101427.38;5115232;28;20038;-71
2022/07/29 16:03:42;;;;;;;7.15;2.50;;;;;;;18.97;70.93;101434.44;5099217;28;20444;-69
2022/07/29 16:06:07;;;;;;;5.57;2.40;;;;;;;18.86;70.95;101411.56;5098705;28;20042;-70
2022/07/29 16:08:33;;;;;;;6.65;2.92;;;;;;;18.91;71.83;101423.63;5115624;28;20422;-70
2022/07/29 16:10:58;;;;;;;7.18;4.88;;;;;;;18.85;71.72;101425.25;5115309;28;20087;-70
2022/07/29 16:13:24;;;;;;;8.23;5.90;;;;;;;18.82;72.06;101428.34;5115271;28;20046;-70
2022/07/29 16:15:49;;;;;;;7.93;5.13;;;;;;;18.74;72.27;101437.44;5115301;28;20044;-70
2022/07/29 16:18:15;;;;;;;2.60;2.25;;;;;;;18.59;73.06;101439.41;5115366;28;20032;-70
2022/07/29 16:20:40;;;;;;;2.58;1.98;;;;;;;18.43;73.60;101426.22;5115694;28;20096;-70
2022/07/29 16:23:11;;;;;;;2.60;2.40;;;;;;;18.38;73.80;101431.38;5115354;28;20594;-71
2022/07/29 16:25:39;;;;;;;10.27;2.78;;;;;;;18.33;73.93;101431.16;5115027;28;20043;-71
2022/07/29 16:28:05;;;;;;;6.60;3.05;;;;;;;18.33;73.79;101447.31;5114949;28;20038;-72
2022/07/29 16:30:31;;;;;;;5.20;2.88;;;;;;;18.29;73.92;101435.28;5114951;28;20041;-70
2022/07/29 16:32:56;;;;;;;6.57;2.60;;;;;;;18.28;73.71;101445.22;5114735;28;20043;-71
2022/07/29 16:35:22;;;;;;;5.32;2.30;;;;;;;18.34;73.34;101443.59;5114854;28;20048;-72
2022/07/29 16:37:48;;;;;;;8.80;3.13;;;;;;;18.29;74.40;101429.88;5114408;28;20046;-70
2022/07/29 16:40:13;;;;;;;2.97;2.38;;;;;;;18.33;74.31;101436.53;5115060;28;20050;-70
2022/07/29 16:42:39;;;;;;;3.28;2.92;;;;;;;18.43;74.35;101437.00;5114455;28;20066;-70
2022/07/29 16:45:05;;;;;;;4.72;3.40;;;;;;;18.50;73.74;101436.03;5114594;28;20487;-70
2022/07/29 16:47:31;;;;;;;2.65;2.20;;;;;;;18.40;74.30;101432.00;5114199;28;20486;-71
2022/07/29 16:49:56;;;;;;;6.90;2.63;;;;;;;18.26;74.63;101425.72;5096045;28;20039;-70
2022/07/29 16:52:22;;;;;;;3.90;2.45;;;;;;;18.29;74.96;101421.78;5114630;28;20088;-72
2022/07/29 16:54:47;;;;;;;4.60;2.15;;;;;;;18.40;74.65;101440.09;5114377;28;20573;-70
2022/07/29 16:57:13;;;;;;;4.80;3.20;;;;;;;18.35;75.88;101437.16;5114584;28;20097;-71
2022/07/29 16:59:38;;;;;;;4.30;2.38;;;;;;;18.18;75.75;101440.16;5114134;28;20039;-70
2022/07/29 17:02:04;;;;;;;3.35;2.63;;;;;;;18.00;76.62;101434.44;5113746;28;20031;-70
2022/07/29 17:04:30;;;;;;;3.70;2.35;;;;;;;17.99;77.45;101446.25;5114258;28;20031;-69
2022/07/29 17:06:56;;;;;;;5.22;3.35;;;;;;;17.90;76.92;101436.59;5114096;28;20474;-72
2022/07/29 17:09:22;;;;;;;3.47;2.80;;;;;;;17.75;76.52;101417.84;5113892;28;20084;-71
2022/07/29 17:11:52;;;;;;;3.75;2.05;;;;;;;17.90;76.72;101437.44;5114042;28;20592;-70
2022/07/29 17:14:18;;;;;;;2.35;1.50;;;;;;;17.87;76.30;101435.13;5113912;28;20039;-71
2022/07/29 17:16:44;;;;;;;2.72;1.70;;;;;;;17.75;76.05;101427.78;5113603;28;20889;-70
2022/07/29 17:19:10;;;;;;;3.95;2.10;;;;;;;17.68;77.12;101438.50;5113985;28;20032;-72
2022/07/29 17:21:35;;;;;;;2.40;2.13;;;;;;;17.65;77.45;101434.31;5113735;28;20051;-71
2022/07/29 17:24:01;;;;;;;3.20;2.38;;;;;;;17.63;77.35;101428.25;5113844;28;20078;-72
2022/07/29 17:26:26;;;;;;;5.28;2.90;;;;;;;17.64;77.93;101438.03;5113610;28;20076;-70
2022/07/29 17:28:52;;;;;;;5.20;3.30;;;;;;;17.65;77.88;101434.31;5113777;28;20077;-70
2022/07/29 17:31:18;;;;;;;2.95;2.25;;;;;;;17.65;77.92;101438.84;5113850;28;20184;-71
2022/07/29 17:33:43;;;;;;;4.72;3.08;;;;;;;17.65;78.66;101439.69;5113610;28;20039;-72
2022/07/29 17:36:22;;;;;;;12.90;7.28;;;;;;;17.61;78.40;101419.53;5113356;28;20063;-71
2022/07/29 17:38:48;;;;;;;10.73;4.25;;;;;;;17.65;78.50;101425.38;5113628;28;20035;-71
2022/07/29 17:41:14;;;;;;;8.68;4.63;;;;;;;17.67;78.29;101430.59;5113475;28;20332;-71
2022/07/29 17:43:40;;;;;;;5.13;2.40;;;;;;;17.67;77.86;101427.88;5111762;28;20027;-71
2022/07/29 17:46:07;;;;;;;4.00;2.05;;;;;;;17.67;78.47;101436.84;5112352;28;20028;-72
2022/07/29 17:48:37;;;;;;;7.07;2.20;;;;;;;17.58;78.21;101422.59;5114089;28;20047;-71
2022/07/29 17:51:29;;;;;;;3.17;1.63;;;;;;;17.63;78.19;101432.81;5116443;28;20104;-70
2022/07/29 17:53:54;;;;;;;6.63;2.10;;;;;;;17.64;78.14;101432.63;5115897;28;20070;-69
2022/07/29 17:56:20;;;;;;;3.63;2.08;;;;;;;17.59;78.82;101437.75;5113365;28;20051;-71
2022/07/29 17:58:46;;;;;;;2.83;1.85;;;;;;;17.56;78.38;101435.44;5113280;28;20032;-70
2022/07/29 18:01:13;;;;;;;5.28;2.13;;;;;;;17.40;78.65;101419.53;5113286;28;20054;-71
2022/07/29 18:03:39;;;;;;;2.40;1.80;;;;;;;17.47;79.49;101425.81;5112941;28;20062;-72
2022/07/29 18:06:05;;;;;;;3.25;2.10;;;;;;;17.44;79.64;101426.22;5112962;28;20036;-70
2022/07/29 18:08:31;;;;;;;5.43;3.10;;;;;;;17.39;79.88;101428.66;5094981;28;20084;-70
2022/07/29 18:10:56;;;;;;;6.88;4.13;;;;;;;17.38;79.79;101426.97;5112841;28;20041;-71
2022/07/29 18:13:25;;;;;;;4.50;4.03;;;;;;;17.41;80.86;101423.91;5113197;28;20448;-72
2022/07/29 18:15:51;;;;;;;3.03;2.60;;;;;;;17.33;80.08;101426.69;5112453;28;20407;-71
2022/07/29 18:18:17;;;;;;;2.70;1.85;;;;;;;17.27;80.97;101427.47;5095029;28;20360;-71
2022/07/29 18:20:43;;;;;;;2.35;1.75;;;;;;;17.21;81.56;101433.63;5112991;28;20081;-71
2022/07/29 18:23:09;;;;;;;5.22;1.70;;;;;;;17.16;82.21;101425.28;5112915;28;20074;-70
2022/07/29 18:25:35;;;;;;;2.60;2.20;;;;;;;17.14;83.09;101428.16;5094553;28;20039;-71
2022/07/29 18:28:01;;;;;;;2.97;2.50;;;;;;;17.12;83.40;101432.91;5112988;28;20130;-70
2022/07/29 18:30:28;;;;;;;2.13;1.85;;;;;;;17.15;83.79;101442.44;5112609;28;20031;-73
2022/07/29 18:32:54;;;;;;;6.60;3.92;;;;;;;17.12;82.98;101432.06;5112447;28;20054;-70
2022/07/29 18:35:21;;;;;;;3.28;2.83;;;;;;;17.14;84.21;101438.09;5122416;28;20143;-72
2022/07/29 18:37:52;;;;;;;5.78;2.58;;;;;;;17.08;83.46;101430.78;5112283;28;20044;-70
2022/07/29 18:40:19;;;;;;;4.25;2.05;;;;;;;17.10;83.78;101434.94;5097545;28;20055;-69
2022/07/29 18:42:46;;;;;;;3.58;2.20;;;;;;;17.13;83.76;101431.03;5113705;28;20046;-70
2022/07/29 18:45:11;;;;;;;2.88;1.55;;;;;;;17.10;83.26;101437.63;5115289;28;20042;-71
2022/07/29 18:47:37;;;;;;;4.57;2.08;;;;;;;17.06;83.43;101424.72;5112347;28;20035;-70
2022/07/29 18:50:06;;;;;;;3.03;1.67;;;;;;;16.96;83.68;101428.56;5112131;28;20081;-70
2022/07/29 18:52:33;;;;;;;2.38;2.08;;;;;;;16.94;84.61;101435.16;5112176;28;20079;-69
2022/07/29 18:55:01;;;;;;;3.90;2.13;;;;;;;16.91;84.00;101433.66;5112221;28;20513;-69
2022/07/29 18:57:27;;;;;;;3.88;2.75;;;;;;;16.94;84.22;101435.16;5112119;28;20406;-69
2022/07/29 18:59:53;;;;;;;2.60;1.90;;;;;;;16.88;83.91;101431.34;5112252;28;20032;-68
2022/07/29 19:02:20;;;;;;;2.13;1.67;;;;;;;16.87;83.77;101432.38;5118476;28;20118;-70
2022/07/29 19:04:48;;;;;;;5.07;1.98;;;;;;;16.90;83.43;101434.69;5122124;28;20509;-70
2022/07/29 19:07:16;;;;;;;3.20;1.48;;;;;;;16.90;83.07;101432.00;5122417;28;20115;-70
2022/07/29 19:09:43;;;;;;;2.50;1.23;;;;;;;16.90;82.86;101437.38;5120243;28;20036;-69
2022/07/29 19:12:10;;;;;;;3.08;1.55;;;;;;;16.82;82.81;101415.13;5099863;28;20032;-69
2022/07/29 19:14:36;;;;;;;1.70;1.30;;;;;;;16.87;82.03;101429.69;5120837;28;20036;-69
2022/07/29 19:17:01;;;;;;;1.67;1.52;;;;;;;16.94;82.80;101430.59;5119035;28;20039;-71
2022/07/29 19:19:27;;;;;;;1.70;1.55;;;;;;;16.95;82.10;101434.13;5101700;28;20032;-67
2022/07/29 19:21:52;;;;;;;1.90;1.55;;;;;;;16.96;81.36;101442.00;5105640;28;20039;-69
2022/07/29 19:24:18;;;;;;;1.60;1.10;;;;;;;16.96;81.15;101444.69;5118136;28;20062;-70
2022/07/29 19:26:45;;;;;;;5.63;1.67;;;;;;;17.00;81.42;101440.59;5118479;28;20031;-69
2022/07/29 19:29:15;;;;;;;2.03;1.73;;;;;;;17.00;81.23;101440.59;5118561;28;20438;-69
2022/07/29 19:31:41;;;;;;;3.70;2.17;;;;;;;16.99;81.52;101430.88;5116990;28;20043;-70
2022/07/29 19:34:08;;;;;;;1.98;1.73;;;;;;;16.98;81.19;101431.88;5097867;28;20383;-70
2022/07/29 19:36:34;;;;;;;3.97;1.63;;;;;;;17.02;80.79;101432.34;5116294;28;20043;-69
2022/07/29 19:39:00;;;;;;;2.45;1.80;;;;;;;17.02;80.58;101438.56;5097946;28;20031;-68
2022/07/29 19:41:27;;;;;;;2.97;1.77;;;;;;;17.01;80.68;101436.06;5116517;28;20035;-69
2022/07/29 19:43:53;;;;;;;2.85;1.35;;;;;;;16.98;79.68;101431.88;5115926;28;20031;-70
2022/07/29 19:46:19;;;;;;;2.85;1.48;;;;;;;16.98;79.71;101426.50;5115920;28;20031;-70